createdAt,value
2018-09-25T00:00:34.469Z,1.70
2018-09-25T00:03:08.448Z,1.30
2018-09-25T00:05:42.415Z,1.10
2018-09-25T00:08:16.064Z,1.40
2018-09-25T00:10:50.051Z,1.50
2018-09-25T00:13:23.944Z,1.10
2018-09-25T00:15:57.728Z,1.50
2018-09-25T00:18:31.737Z,1.70
2018-09-25T00:21:05.649Z,1.45
2018-09-25T00:23:39.543Z,1.60
2018-09-25T00:26:13.523Z,2.27
2018-09-25T00:28:47.250Z,1.75
2018-09-25T00:31:21.168Z,1.65
2018-09-25T00:33:55.115Z,2.10
2018-09-25T00:36:29.121Z,2.10
2018-09-25T00:39:02.914Z,2.05
2018-09-25T00:41:36.839Z,1.95
2018-09-25T00:44:10.771Z,1.75
2018-09-25T00:46:44.509Z,2.20
2018-09-25T00:49:18.272Z,2.10
2018-09-25T00:51:52.250Z,2.40
2018-09-25T00:54:26.110Z,2.62
2018-09-25T00:56:59.800Z,2.10
2018-09-25T00:59:33.808Z,2.30
2018-09-25T01:02:07.673Z,2.25
2018-09-25T01:04:41.512Z,2.37
2018-09-25T01:07:15.274Z,2.45
2018-09-25T01:09:49.144Z,2.58
2018-09-25T01:12:23.047Z,2.50
2018-09-25T01:14:57.009Z,2.05
2018-09-25T01:17:30.972Z,1.85
2018-09-25T01:20:04.850Z,2.42
2018-09-25T01:22:38.737Z,2.62
2018-09-25T01:25:12.709Z,2.10
2018-09-25T01:27:46.676Z,1.87
2018-09-25T01:30:20.593Z,1.90
2018-09-25T01:32:54.749Z,2.00
2018-09-25T01:35:28.568Z,2.42
2018-09-25T01:38:02.557Z,1.92
2018-09-25T01:40:36.342Z,2.42
2018-09-25T01:43:10.307Z,1.75
2018-09-25T01:45:44.182Z,2.05
2018-09-25T01:48:17.919Z,2.67
2018-09-25T01:50:51.717Z,2.33
2018-09-25T01:53:25.629Z,2.22
2018-09-25T01:55:59.437Z,2.22
2018-09-25T01:58:33.312Z,2.30
2018-09-25T02:01:07.038Z,2.02
2018-09-25T02:03:40.982Z,1.98
2018-09-25T02:06:14.885Z,2.00
2018-09-25T02:08:48.741Z,2.10
2018-09-25T02:11:22.536Z,2.22
2018-09-25T02:13:56.338Z,2.10
2018-09-25T02:16:30.163Z,1.90
2018-09-25T02:19:04.091Z,2.02
2018-09-25T02:21:38.038Z,2.08
2018-09-25T02:24:12.063Z,2.40
2018-09-25T02:26:45.875Z,2.15
2018-09-25T02:29:19.858Z,2.35
2018-09-25T02:31:53.822Z,2.00
2018-09-25T02:34:27.779Z,2.15
2018-09-25T02:37:01.615Z,2.95
2018-09-25T02:39:35.441Z,1.95
2018-09-25T02:42:09.289Z,2.65
2018-09-25T02:44:43.191Z,2.98
2018-09-25T02:47:17.051Z,2.95
2018-09-25T02:49:50.879Z,2.87
2018-09-25T02:52:24.804Z,3.25
2018-09-25T02:54:58.825Z,2.70
2018-09-25T02:57:32.724Z,2.67
2018-09-25T03:00:06.501Z,3.00
2018-09-25T03:02:40.451Z,3.10
2018-09-25T03:05:14.244Z,3.37
2018-09-25T03:07:48.101Z,2.60
2018-09-25T03:10:22.420Z,2.85
2018-09-25T03:12:56.347Z,2.95
2018-09-25T03:15:30.272Z,2.70
2018-09-25T03:18:03.939Z,4.00
2018-09-25T03:20:37.972Z,2.80
2018-09-25T03:23:11.877Z,2.70
2018-09-25T03:25:45.841Z,2.87
2018-09-25T03:28:19.649Z,3.10
2018-09-25T03:30:53.620Z,2.80
2018-09-25T03:33:27.352Z,2.80
2018-09-25T03:36:01.230Z,3.33
2018-09-25T03:38:35.006Z,2.90
2018-09-25T03:41:09.020Z,3.42
2018-09-25T03:43:42.806Z,3.12
2018-09-25T03:46:16.874Z,3.50
2018-09-25T03:48:50.623Z,3.70
2018-09-25T03:51:24.450Z,3.30
2018-09-25T03:53:58.203Z,3.37
2018-09-25T03:56:32.029Z,3.72
2018-09-25T03:59:05.913Z,2.95
2018-09-25T04:01:39.770Z,3.77
2018-09-25T04:04:13.740Z,3.37
2018-09-25T04:06:47.693Z,3.65
2018-09-25T04:09:21.501Z,3.95
2018-09-25T04:11:55.503Z,3.80
2018-09-25T04:14:29.423Z,3.10
2018-09-25T04:17:03.237Z,3.85
2018-09-25T04:19:37.082Z,3.98
2018-09-25T04:22:10.897Z,3.60
2018-09-25T04:24:44.728Z,3.67
2018-09-25T04:27:18.498Z,4.45
2018-09-25T04:29:52.434Z,3.87
2018-09-25T04:32:26.207Z,3.30
2018-09-25T04:34:59.977Z,4.12
2018-09-25T04:37:33.946Z,5.00
2018-09-25T04:40:07.914Z,3.67
2018-09-25T04:42:41.676Z,4.00
2018-09-25T04:45:15.693Z,3.17
2018-09-25T04:47:49.577Z,4.12
2018-09-25T04:50:23.394Z,4.25
2018-09-25T04:52:57.108Z,4.47
2018-09-25T04:55:30.921Z,4.15
2018-09-25T04:58:04.750Z,5.50
2018-09-25T05:00:38.826Z,4.97
2018-09-25T05:03:12.672Z,4.30
2018-09-25T05:05:46.674Z,4.17
2018-09-25T05:08:20.477Z,5.22
2018-09-25T05:10:54.386Z,4.25
2018-09-25T05:13:28.273Z,4.25
2018-09-25T05:16:02.189Z,4.95
2018-09-25T05:18:36.109Z,4.95
2018-09-25T05:21:09.982Z,5.85
2018-09-25T05:23:43.662Z,4.25
2018-09-25T05:26:17.568Z,4.60
2018-09-25T05:28:51.438Z,4.67
2018-09-25T05:31:25.271Z,4.75
2018-09-25T05:33:59.284Z,4.90
2018-09-25T05:36:32.982Z,5.08
2018-09-25T05:39:06.906Z,4.45
2018-09-25T05:41:40.621Z,5.42
2018-09-25T05:44:14.547Z,4.53
2018-09-25T05:46:48.316Z,3.80
2018-09-25T05:49:23.739Z,3.75
2018-09-25T05:51:59.147Z,4.33
2018-09-25T05:54:32.912Z,4.00
2018-09-25T05:57:06.846Z,4.00
2018-09-25T05:59:40.800Z,3.80
2018-09-25T06:02:14.735Z,3.83
2018-09-25T06:04:50.660Z,3.70
2018-09-25T06:07:24.485Z,4.03
2018-09-25T06:09:58.518Z,4.33
2018-09-25T06:12:32.377Z,3.52
2018-09-25T06:15:06.347Z,4.65
2018-09-25T06:17:40.146Z,3.60
2018-09-25T06:20:13.840Z,3.77
2018-09-25T06:22:47.753Z,3.50
2018-09-25T06:25:21.702Z,4.08
2018-09-25T06:27:55.764Z,3.60
2018-09-25T06:30:29.576Z,3.45
2018-09-25T06:33:03.412Z,3.52
2018-09-25T06:35:37.260Z,3.27
2018-09-25T06:38:11.188Z,3.30
2018-09-25T06:40:45.253Z,3.55
2018-09-25T06:43:19.038Z,3.85
2018-09-25T06:45:53.030Z,3.45
2018-09-25T06:48:26.784Z,3.17
2018-09-25T06:51:00.753Z,2.70
2018-09-25T06:53:35.345Z,3.20
2018-09-25T06:56:09.336Z,3.10
2018-09-25T06:58:43.372Z,4.17
2018-09-25T07:01:17.375Z,3.52
2018-09-25T07:03:51.227Z,3.10
2018-09-25T07:06:24.964Z,3.10
2018-09-25T07:08:58.871Z,3.15
2018-09-25T07:11:32.729Z,3.20
2018-09-25T07:14:06.622Z,3.60
2018-09-25T07:16:40.571Z,3.08
2018-09-25T07:19:14.500Z,3.42
2018-09-25T07:21:48.350Z,3.55
2018-09-25T07:24:22.394Z,3.72
2018-09-25T07:26:56.161Z,3.05
2018-09-25T07:29:30.047Z,3.27
2018-09-25T07:32:03.793Z,3.58
2018-09-25T07:34:37.758Z,3.47
2018-09-25T07:37:11.748Z,2.90
2018-09-25T07:39:45.830Z,3.10
2018-09-25T07:42:19.789Z,3.70
2018-09-25T07:44:53.726Z,3.58
2018-09-25T07:47:27.523Z,3.95
2018-09-25T07:50:01.448Z,3.42
2018-09-25T07:52:35.388Z,3.20
2018-09-25T07:55:09.329Z,2.70
2018-09-25T07:57:43.166Z,2.20
2018-09-25T08:00:17.095Z,2.60
2018-09-25T08:02:50.953Z,2.65
2018-09-25T08:05:24.913Z,2.70
2018-09-25T08:07:58.756Z,2.75
2018-09-25T08:10:32.514Z,2.60
2018-09-25T08:13:06.455Z,2.30
2018-09-25T08:15:40.407Z,2.05
2018-09-25T08:18:14.234Z,2.10
2018-09-25T08:20:48.171Z,3.58
2018-09-25T08:23:22.193Z,3.25
2018-09-25T08:25:56.189Z,2.02
2018-09-25T08:28:30.215Z,2.67
2018-09-25T08:31:03.977Z,2.22
2018-09-25T08:33:37.957Z,2.45
2018-09-25T08:36:11.838Z,2.50
2018-09-25T08:38:45.889Z,1.55
2018-09-25T08:41:19.692Z,2.83
2018-09-25T08:43:53.501Z,2.35
2018-09-25T08:46:27.427Z,2.30
2018-09-25T08:49:01.368Z,2.20
2018-09-25T08:51:35.426Z,1.85
2018-09-25T08:54:09.288Z,2.35
2018-09-25T08:56:43.091Z,2.87
2018-09-25T08:59:17.008Z,2.37
2018-09-25T09:01:50.961Z,3.02
2018-09-25T09:04:25.128Z,2.45
2018-09-25T09:06:59.104Z,2.35
2018-09-25T09:09:33.056Z,2.10
2018-09-25T09:12:06.925Z,2.42
2018-09-25T09:14:40.831Z,2.70
2018-09-25T09:17:14.854Z,1.90
2018-09-25T09:19:48.855Z,2.40
2018-09-25T09:22:22.616Z,2.20
2018-09-25T09:24:56.462Z,1.90
2018-09-25T09:27:30.226Z,2.70
2018-09-25T09:30:04.078Z,2.08
2018-09-25T09:32:37.955Z,3.10
2018-09-25T09:35:11.996Z,2.55
2018-09-25T09:37:45.904Z,1.70
2018-09-25T09:40:19.834Z,2.10
2018-09-25T09:42:53.767Z,1.62
2018-09-25T09:45:27.555Z,1.85
2018-09-25T09:48:01.506Z,1.50
2018-09-25T09:50:35.395Z,1.57
2018-09-25T09:53:09.222Z,2.02
2018-09-25T09:55:43.177Z,1.87
2018-09-25T09:58:17.976Z,1.92
2018-09-25T10:00:51.942Z,1.42
2018-09-25T10:03:25.936Z,1.55
2018-09-25T10:05:59.803Z,1.50
2018-09-25T10:08:33.724Z,1.47
2018-09-25T10:11:07.433Z,1.40
2018-09-25T10:13:41.408Z,2.20
2018-09-25T10:16:15.289Z,1.42
2018-09-25T10:18:49.305Z,1.80
2018-09-25T10:21:23.193Z,1.20
2018-09-25T10:23:57.214Z,1.10
2018-09-25T10:26:31.059Z,1.57
2018-09-25T10:29:04.776Z,1.45
2018-09-25T10:31:38.598Z,1.20
2018-09-25T10:34:12.655Z,1.52
2018-09-25T10:36:46.588Z,1.27
2018-09-25T10:39:20.335Z,1.32
2018-09-25T10:41:54.250Z,1.30
2018-09-25T10:44:28.064Z,1.00
2018-09-25T10:47:02.073Z,1.20
2018-09-25T10:49:35.861Z,1.10
2018-09-25T10:52:09.774Z,1.32
2018-09-25T10:54:43.711Z,1.00
2018-09-25T10:57:17.673Z,1.00
2018-09-25T10:59:51.528Z,1.12
2018-09-25T11:02:25.347Z,1.22
2018-09-25T11:04:59.309Z,1.00
2018-09-25T11:07:33.167Z,1.20
2018-09-25T11:10:07.102Z,1.10
2018-09-25T11:12:41.013Z,1.27
2018-09-25T11:15:14.875Z,1.25
2018-09-25T11:17:48.661Z,1.10
2018-09-25T11:20:22.484Z,1.50
2018-09-25T11:22:56.419Z,1.10
2018-09-25T11:25:30.429Z,1.02
2018-09-25T11:28:04.295Z,1.42
2018-09-25T11:30:38.118Z,1.07
2018-09-25T11:33:12.096Z,1.00
2018-09-25T11:35:46.037Z,1.00
2018-09-25T11:38:19.825Z,0.80
2018-09-25T11:40:53.789Z,1.00
2018-09-25T11:43:27.516Z,1.15
2018-09-25T11:46:01.384Z,1.05
2018-09-25T11:48:35.252Z,1.02
2018-09-25T11:51:09.062Z,1.20
2018-09-25T11:53:43.121Z,1.25
2018-09-25T11:56:16.836Z,1.10
2018-09-25T11:58:50.756Z,1.00
2018-09-25T12:01:24.749Z,1.40
2018-09-25T12:03:58.769Z,1.10
2018-09-25T12:06:32.673Z,1.72
2018-09-25T12:09:06.673Z,0.95
2018-09-25T12:11:40.595Z,1.10
2018-09-25T12:14:14.488Z,1.25
2018-09-25T12:16:48.330Z,1.07
2018-09-25T12:19:22.035Z,1.30
2018-09-25T12:21:55.900Z,1.00
2018-09-25T12:24:29.941Z,1.52
2018-09-25T12:27:03.831Z,1.30
2018-09-25T12:29:37.576Z,1.40
2018-09-25T12:32:11.429Z,1.07
2018-09-25T12:34:45.209Z,1.35
2018-09-25T12:37:19.141Z,1.22
2018-09-25T12:39:53.091Z,1.17
2018-09-25T12:42:26.956Z,1.30
2018-09-25T12:45:00.894Z,1.10
2018-09-25T12:47:34.856Z,1.57
2018-09-25T12:50:08.716Z,1.20
2018-09-25T12:52:42.659Z,1.20
2018-09-25T12:55:16.532Z,0.90
2018-09-25T12:57:50.403Z,1.00
2018-09-25T13:00:24.196Z,1.10
2018-09-25T13:02:58.012Z,1.30
2018-09-25T13:05:31.823Z,0.95
2018-09-25T13:08:05.610Z,1.00
2018-09-25T13:10:39.396Z,1.10
2018-09-25T13:13:13.367Z,1.45
2018-09-25T13:15:47.284Z,1.22
2018-09-25T13:18:21.013Z,1.00
2018-09-25T13:20:54.776Z,1.10
2018-09-25T13:23:28.614Z,1.05
2018-09-25T13:26:02.360Z,1.10
2018-09-25T13:28:36.105Z,0.90
2018-09-25T13:31:10.097Z,2.08
2018-09-25T13:33:44.090Z,0.90
2018-09-25T13:36:17.990Z,1.37
2018-09-25T13:38:51.927Z,1.00
2018-09-25T13:41:25.849Z,1.32
2018-09-25T13:43:59.914Z,1.20
2018-09-25T13:46:33.813Z,1.20
2018-09-25T13:49:07.753Z,1.27
2018-09-25T13:51:41.565Z,1.25
2018-09-25T13:54:15.549Z,1.00
2018-09-25T13:56:49.488Z,1.40
2018-09-25T13:59:23.397Z,1.67
2018-09-25T14:01:57.344Z,1.05
2018-09-25T14:04:31.367Z,1.17
2018-09-25T14:07:05.358Z,1.02
2018-09-25T14:09:39.366Z,1.00
2018-09-25T14:12:13.378Z,1.17
2018-09-25T14:14:47.444Z,1.20
2018-09-25T14:17:21.356Z,1.10
2018-09-25T14:19:57.219Z,1.50
2018-09-25T14:22:31.060Z,1.30
2018-09-25T14:25:04.997Z,1.02
2018-09-25T14:27:38.932Z,1.30
2018-09-25T14:30:14.901Z,0.90
2018-09-25T14:32:48.820Z,1.55
2018-09-25T14:35:23.348Z,1.17
2018-09-25T14:37:57.395Z,0.98
2018-09-25T14:40:31.214Z,1.40
2018-09-25T14:43:05.184Z,1.10
2018-09-25T14:45:39.062Z,1.30
2018-09-25T14:48:12.849Z,1.22
2018-09-25T14:50:46.542Z,1.00
2018-09-25T14:53:20.381Z,1.10
2018-09-25T14:55:54.336Z,1.52
2018-09-25T14:58:28.308Z,2.58
2018-09-25T15:01:02.221Z,1.25
2018-09-25T15:03:36.169Z,1.20
2018-09-25T15:06:10.058Z,1.00
2018-09-25T15:08:43.961Z,1.00
2018-09-25T15:11:17.904Z,1.20
2018-09-25T15:13:51.841Z,1.10
2018-09-25T15:16:26.600Z,1.00
2018-09-25T15:19:00.713Z,0.90
2018-09-25T15:21:35.862Z,0.90
2018-09-25T15:24:09.753Z,1.00
2018-09-25T15:26:43.721Z,0.70
2018-09-25T15:29:19.072Z,0.88
2018-09-25T15:31:53.856Z,1.00
2018-09-25T15:34:31.377Z,0.90
2018-09-25T15:37:05.348Z,1.20
2018-09-25T15:39:39.187Z,0.93
2018-09-25T15:42:13.015Z,1.20
2018-09-25T15:44:47.820Z,1.60
2018-09-25T15:47:21.891Z,1.20
2018-09-25T15:49:55.649Z,1.15
2018-09-25T15:52:29.540Z,0.80
2018-09-25T15:55:03.579Z,1.50
2018-09-25T15:57:37.550Z,1.95
2018-09-25T16:00:11.794Z,1.00
2018-09-25T16:02:45.577Z,2.22
2018-09-25T16:05:19.642Z,2.35
2018-09-25T16:07:53.624Z,1.30
2018-09-25T16:10:27.632Z,1.60
2018-09-25T16:13:02.608Z,2.05
2018-09-25T16:15:36.487Z,2.40
2018-09-25T16:18:10.359Z,11.20
2018-09-25T16:20:44.298Z,30.15
2018-09-25T16:23:18.228Z,38.40
2018-09-25T16:25:52.159Z,8.75
2018-09-25T16:28:25.985Z,19.10
2018-09-25T16:30:59.978Z,37.70
2018-09-25T16:33:33.893Z,149.00
2018-09-25T16:36:07.686Z,188.05
2018-09-25T16:38:41.538Z,55.60
2018-09-25T16:41:15.391Z,25.68
2018-09-25T16:43:49.366Z,34.55
2018-09-25T16:46:23.262Z,49.08
2018-09-25T16:48:57.302Z,35.48
2018-09-25T16:51:31.265Z,22.52
2018-09-25T16:54:05.306Z,8.58
2018-09-25T16:56:39.297Z,12.30
2018-09-25T16:59:13.191Z,5.45
2018-09-25T17:01:46.969Z,9.45
2018-09-25T17:04:20.879Z,24.87
2018-09-25T17:06:57.664Z,31.23
2018-09-25T17:09:31.768Z,17.50
2018-09-25T17:12:07.755Z,13.75
2018-09-25T17:14:41.750Z,28.27
2018-09-25T17:17:15.625Z,29.27
2018-09-25T17:19:49.590Z,37.10
2018-09-25T17:22:23.498Z,77.50
2018-09-25T17:24:57.423Z,20.00
2018-09-25T17:27:31.353Z,15.38
2018-09-25T17:30:05.202Z,115.60
2018-09-25T17:32:39.258Z,57.80
2018-09-25T17:35:13.163Z,111.92
2018-09-25T17:37:46.876Z,56.35
2018-09-25T17:40:20.897Z,18.55
2018-09-25T17:42:54.892Z,11.03
2018-09-25T17:45:28.923Z,12.18
2018-09-25T17:48:02.834Z,26.82
2018-09-25T17:50:36.818Z,44.77
2018-09-25T17:53:10.791Z,37.03
2018-09-25T17:55:44.740Z,49.83
2018-09-25T17:58:18.455Z,8.35
2018-09-25T18:00:52.438Z,8.73
2018-09-25T18:03:26.501Z,84.03
2018-09-25T18:06:00.466Z,54.55
2018-09-25T18:08:34.181Z,12.60
2018-09-25T18:11:08.146Z,5.58
2018-09-25T18:13:42.201Z,10.95
2018-09-25T18:16:16.157Z,25.92
2018-09-25T18:18:49.995Z,43.78
2018-09-25T18:21:24.047Z,77.92
2018-09-25T18:23:58.032Z,11.60
2018-09-25T18:26:31.900Z,11.43
2018-09-25T18:29:05.756Z,11.63
2018-09-25T18:31:39.693Z,10.53
2018-09-25T18:34:13.543Z,11.78
2018-09-25T18:36:47.504Z,15.45
2018-09-25T18:39:21.463Z,18.73
2018-09-25T18:41:55.485Z,24.32
2018-09-25T18:44:29.512Z,14.75
2018-09-25T18:47:03.493Z,11.57
2018-09-25T18:49:37.342Z,9.55
2018-09-25T18:52:11.769Z,5.47
2018-09-25T18:54:45.600Z,4.25
2018-09-25T18:57:19.685Z,4.03
2018-09-25T18:59:53.729Z,2.92
2018-09-25T19:02:27.604Z,4.35
2018-09-25T19:05:02.436Z,3.20
2018-09-25T19:07:36.349Z,3.00
2018-09-25T19:10:10.347Z,2.72
2018-09-25T19:12:44.384Z,2.12
2018-09-25T19:15:18.338Z,2.27
2018-09-25T19:17:52.279Z,1.75
2018-09-25T19:20:26.136Z,2.60
2018-09-25T19:23:00.070Z,3.35
2018-09-25T19:25:34.024Z,2.70
2018-09-25T19:28:07.926Z,2.47
2018-09-25T19:30:41.714Z,2.30
2018-09-25T19:33:15.658Z,3.15
2018-09-25T19:35:49.691Z,2.25
2018-09-25T19:38:26.623Z,2.10
2018-09-25T19:41:00.405Z,2.22
2018-09-25T19:43:34.401Z,2.45
2018-09-25T19:46:08.355Z,2.33
2018-09-25T19:48:42.113Z,2.98
2018-09-25T19:51:16.066Z,2.92
2018-09-25T19:53:49.907Z,2.90
2018-09-25T19:56:23.693Z,3.10
2018-09-25T19:58:57.649Z,2.85
2018-09-25T20:01:31.580Z,3.72
2018-09-25T20:04:05.497Z,4.00
2018-09-25T20:06:39.612Z,4.30
2018-09-25T20:09:14.476Z,4.30
2018-09-25T20:11:48.784Z,4.50
2018-09-25T20:14:22.581Z,3.80
2018-09-25T20:16:56.394Z,3.92
2018-09-25T20:19:30.519Z,7.90
2018-09-25T20:22:04.422Z,5.05
2018-09-25T20:24:38.507Z,3.92
2018-09-25T20:27:12.405Z,3.70
2018-09-25T20:29:46.378Z,4.75
2018-09-25T20:32:20.102Z,4.05
2018-09-25T20:34:53.843Z,4.20
2018-09-25T20:37:27.854Z,4.00
2018-09-25T20:40:01.559Z,3.50
2018-09-25T20:42:35.398Z,3.92
2018-09-25T20:45:09.285Z,4.35
2018-09-25T20:47:43.094Z,4.10
2018-09-25T20:50:16.941Z,4.12
2018-09-25T20:52:50.849Z,4.25
2018-09-25T20:55:24.695Z,4.22
2018-09-25T20:57:58.729Z,3.77
2018-09-25T21:00:32.652Z,6.72
2018-09-25T21:03:06.506Z,3.70
2018-09-25T21:05:40.391Z,3.85
2018-09-25T21:08:14.227Z,3.58
2018-09-25T21:10:48.240Z,4.35
2018-09-25T21:13:22.296Z,4.05
2018-09-25T21:15:56.235Z,3.58
2018-09-25T21:18:30.176Z,4.05
2018-09-25T21:21:04.197Z,4.05
2018-09-25T21:23:37.967Z,4.40
2018-09-25T21:26:12.042Z,4.22
2018-09-25T21:28:45.925Z,4.08
2018-09-25T21:31:19.832Z,4.25
2018-09-25T21:33:53.721Z,5.03
2018-09-25T21:36:27.763Z,6.03
2018-09-25T21:39:01.737Z,11.20
2018-09-25T21:41:35.696Z,14.43
2018-09-25T21:44:09.583Z,8.98
2018-09-25T21:46:44.203Z,13.75
2018-09-25T21:49:18.885Z,3.80
2018-09-25T21:51:52.852Z,5.80
2018-09-25T21:54:26.616Z,20.25
2018-09-25T21:57:00.614Z,24.37
2018-09-25T21:59:34.451Z,5.17
2018-09-25T22:02:08.497Z,5.45
2018-09-25T22:04:42.285Z,4.40
2018-09-25T22:07:16.144Z,3.47
2018-09-25T22:09:50.207Z,4.33
2018-09-25T22:12:24.200Z,3.87
2018-09-25T22:14:58.005Z,2.85
2018-09-25T22:17:31.870Z,3.33
2018-09-25T22:20:05.946Z,18.85
2018-09-25T22:22:39.752Z,6.33
2018-09-25T22:25:13.629Z,4.78
2018-09-25T22:27:47.647Z,4.80
2018-09-25T22:30:21.558Z,4.33
2018-09-25T22:32:55.389Z,4.25
2018-09-25T22:35:29.404Z,4.00
2018-09-25T22:38:03.124Z,3.98
2018-09-25T22:40:37.071Z,4.50
2018-09-25T22:43:10.932Z,3.83
2018-09-25T22:45:44.908Z,3.52
2018-09-25T22:48:18.743Z,3.00
2018-09-25T22:50:52.647Z,3.70
2018-09-25T22:53:26.531Z,3.87
2018-09-25T22:56:00.343Z,3.77
2018-09-25T22:58:34.366Z,3.60
2018-09-25T23:01:08.165Z,4.20
2018-09-25T23:03:42.033Z,3.55
2018-09-25T23:06:15.830Z,3.92
2018-09-25T23:08:49.774Z,3.58
2018-09-25T23:11:23.802Z,5.00
2018-09-25T23:13:57.506Z,5.37
2018-09-25T23:16:31.203Z,3.70
2018-09-25T23:19:05.134Z,2.67
2018-09-25T23:21:39.112Z,3.72
2018-09-25T23:24:13.045Z,3.77
2018-09-25T23:26:47.000Z,3.15
2018-09-25T23:29:24.551Z,3.12
2018-09-25T23:31:58.545Z,4.25
2018-09-25T23:34:32.588Z,3.05
2018-09-25T23:37:06.563Z,3.25
2018-09-25T23:39:39.321Z,3.40
2018-09-25T23:42:25.282Z,2.83
2018-09-25T23:45:00.075Z,3.95
2018-09-25T23:47:39.033Z,3.50
2018-09-25T23:50:13.922Z,8.13
2018-09-25T23:52:48.632Z,6.47
2018-09-25T23:55:36.592Z,3.52
2018-09-25T23:58:08.843Z,3.40
